sensor_id;sensor_type;location;lat;lon;timestamp;temperature;humidity
39847;DHT22;25517;52.422;10.782;2024-02-14T00:00:32;6.30;99.90
39847;DHT22;25517;52.422;10.782;2024-02-14T00:02:58;6.30;99.90
39847;DHT22;25517;52.422;10.782;2024-02-14T00:05:25;6.30;99.90
39847;DHT22;25517;52.422;10.782;2024-02-14T00:07:51;6.30;99.90
39847;DHT22;25517;52.422;10.782;2024-02-14T00:10:17;6.30;99.90
39847;DHT22;25517;52.422;10.782;2024-02-14T00:12:42;6.40;99.90
39847;DHT22;25517;52.422;10.782;2024-02-14T00:15:08;6.40;99.90
39847;DHT22;25517;52.422;10.782;2024-02-14T00:17:35;6.40;99.90
39847;DHT22;25517;52.422;10.782;2024-02-14T00:20:01;6.40;99.90
39847;DHT22;25517;52.422;10.782;2024-02-14T00:22:28;6.40;99.90
39847;DHT22;25517;52.422;10.782;2024-02-14T00:24:53;6.40;99.90
39847;DHT22;25517;52.422;10.782;2024-02-14T00:27:19;6.40;99.90
39847;DHT22;25517;52.422;10.782;2024-02-14T00:29:45;6.40;99.90
39847;DHT22;25517;52.422;10.782;2024-02-14T00:32:12;6.40;99.90
39847;DHT22;25517;52.422;10.782;2024-02-14T00:34:38;6.40;99.90
39847;DHT22;25517;52.422;10.782;2024-02-14T00:37:04;6.40;99.90
39847;DHT22;25517;52.422;10.782;2024-02-14T00:39:29;6.40;99.90
39847;DHT22;25517;52.422;10.782;2024-02-14T00:41:55;6.40;99.90
39847;DHT22;25517;52.422;10.782;2024-02-14T00:44:21;6.40;99.90
39847;DHT22;25517;52.422;10.782;2024-02-14T00:46:47;6.40;99.90
39847;DHT22;25517;52.422;10.782;2024-02-14T00:49:13;6.40;99.90
39847;DHT22;25517;52.422;10.782;2024-02-14T00:51:39;6.40;99.90
39847;DHT22;25517;52.422;10.782;2024-02-14T00:54:06;6.40;99.90
39847;DHT22;25517;52.422;10.782;2024-02-14T00:56:31;6.40;99.90
39847;DHT22;25517;52.422;10.782;2024-02-14T00:58:57;6.40;99.90
39847;DHT22;25517;52.422;10.782;2024-02-14T01:01:23;6.40;99.90
39847;DHT22;25517;52.422;10.782;2024-02-14T01:03:48;6.40;99.90
39847;DHT22;25517;52.422;10.782;2024-02-14T01:06:14;6.40;99.90
39847;DHT22;25517;52.422;10.782;2024-02-14T01:08:41;6.40;99.90
39847;DHT22;25517;52.422;10.782;2024-02-14T01:11:07;6.40;99.90
39847;DHT22;25517;52.422;10.782;2024-02-14T01:13:33;6.40;99.90
39847;DHT22;25517;52.422;10.782;2024-02-14T01:15:58;6.40;99.90
39847;DHT22;25517;52.422;10.782;2024-02-14T01:18:24;6.40;99.90
39847;DHT22;25517;52.422;10.782;2024-02-14T01:20:49;6.40;99.90
39847;DHT22;25517;52.422;10.782;2024-02-14T01:23:16;6.40;99.90
39847;DHT22;25517;52.422;10.782;2024-02-14T01:25:41;6.40;99.90
39847;DHT22;25517;52.422;10.782;2024-02-14T01:28:08;6.40;99.90
39847;DHT22;25517;52.422;10.782;2024-02-14T01:30:34;6.40;99.90
39847;DHT22;25517;52.422;10.782;2024-02-14T01:33:01;6.40;99.90
39847;DHT22;25517;52.422;10.782;2024-02-14T01:35:30;6.40;99.90
39847;DHT22;25517;52.422;10.782;2024-02-14T01:37:55;6.50;99.90
39847;DHT22;25517;52.422;10.782;2024-02-14T01:40:21;6.50;99.90
39847;DHT22;25517;52.422;10.782;2024-02-14T01:42:46;6.40;99.90
39847;DHT22;25517;52.422;10.782;2024-02-14T01:45:12;6.50;99.90
39847;DHT22;25517;52.422;10.782;2024-02-14T01:47:38;6.50;99.90
39847;DHT22;25517;52.422;10.782;2024-02-14T01:50:07;6.50;99.90
39847;DHT22;25517;52.422;10.782;2024-02-14T01:52:36;6.50;99.90
39847;DHT22;25517;52.422;10.782;2024-02-14T01:55:04;6.60;99.90
39847;DHT22;25517;52.422;10.782;2024-02-14T01:57:31;6.60;99.90
39847;DHT22;25517;52.422;10.782;2024-02-14T01:59:57;6.50;99.90
39847;DHT22;25517;52.422;10.782;2024-02-14T02:02:25;6.50;99.90
39847;DHT22;25517;52.422;10.782;2024-02-14T02:04:51;6.50;99.90
39847;DHT22;25517;52.422;10.782;2024-02-14T02:07:17;6.50;99.90
39847;DHT22;25517;52.422;10.782;2024-02-14T02:09:45;6.50;99.90
39847;DHT22;25517;52.422;10.782;2024-02-14T02:12:10;6.40;99.90
39847;DHT22;25517;52.422;10.782;2024-02-14T02:14:36;6.40;99.90
39847;DHT22;25517;52.422;10.782;2024-02-14T02:17:02;6.40;99.90
39847;DHT22;25517;52.422;10.782;2024-02-14T02:19:30;6.40;99.90
39847;DHT22;25517;52.422;10.782;2024-02-14T02:21:58;6.40;99.90
39847;DHT22;25517;52.422;10.782;2024-02-14T02:24:24;6.40;99.90
39847;DHT22;25517;52.422;10.782;2024-02-14T02:26:49;6.30;99.90
39847;DHT22;25517;52.422;10.782;2024-02-14T02:29:15;6.40;99.90
39847;DHT22;25517;52.422;10.782;2024-02-14T02:31:41;6.30;99.90
39847;DHT22;25517;52.422;10.782;2024-02-14T02:34:07;6.30;99.90
39847;DHT22;25517;52.422;10.782;2024-02-14T02:36:36;6.30;99.90
39847;DHT22;25517;52.422;10.782;2024-02-14T02:39:03;6.30;99.90
39847;DHT22;25517;52.422;10.782;2024-02-14T02:41:30;6.30;99.90
39847;DHT22;25517;52.422;10.782;2024-02-14T02:43:57;6.20;99.90
39847;DHT22;25517;52.422;10.782;2024-02-14T02:46:22;6.20;99.90
39847;DHT22;25517;52.422;10.782;2024-02-14T02:48:48;6.20;99.90
39847;DHT22;25517;52.422;10.782;2024-02-14T02:51:16;6.20;99.90
39847;DHT22;25517;52.422;10.782;2024-02-14T02:53:43;6.20;99.90
39847;DHT22;25517;52.422;10.782;2024-02-14T02:56:08;6.20;99.90
39847;DHT22;25517;52.422;10.782;2024-02-14T02:58:34;6.20;99.90
39847;DHT22;25517;52.422;10.782;2024-02-14T03:00:59;6.20;99.90
39847;DHT22;25517;52.422;10.782;2024-02-14T03:03:25;6.20;99.90
39847;DHT22;25517;52.422;10.782;2024-02-14T03:05:52;6.20;99.90
39847;DHT22;25517;52.422;10.782;2024-02-14T03:08:19;6.20;99.90
39847;DHT22;25517;52.422;10.782;2024-02-14T03:10:44;6.20;99.90
39847;DHT22;25517;52.422;10.782;2024-02-14T03:13:11;6.20;99.90
39847;DHT22;25517;52.422;10.782;2024-02-14T03:15:39;6.20;99.90
39847;DHT22;25517;52.422;10.782;2024-02-14T03:18:05;6.30;99.90
39847;DHT22;25517;52.422;10.782;2024-02-14T03:20:35;6.30;99.90
39847;DHT22;25517;52.422;10.782;2024-02-14T03:23:01;6.30;99.90
39847;DHT22;25517;52.422;10.782;2024-02-14T03:25:29;6.30;99.90
39847;DHT22;25517;52.422;10.782;2024-02-14T03:27:54;6.30;99.90
39847;DHT22;25517;52.422;10.782;2024-02-14T03:30:22;6.30;99.90
39847;DHT22;25517;52.422;10.782;2024-02-14T03:32:49;6.30;99.90
39847;DHT22;25517;52.422;10.782;2024-02-14T03:35:15;6.20;99.90
39847;DHT22;25517;52.422;10.782;2024-02-14T03:37:42;6.20;99.90
39847;DHT22;25517;52.422;10.782;2024-02-14T03:40:09;6.10;99.90
39847;DHT22;25517;52.422;10.782;2024-02-14T03:42:35;6.10;99.90
39847;DHT22;25517;52.422;10.782;2024-02-14T03:45:01;6.10;99.90
39847;DHT22;25517;52.422;10.782;2024-02-14T03:47:34;6.10;99.90
39847;DHT22;25517;52.422;10.782;2024-02-14T03:50:01;6.10;99.90
39847;DHT22;25517;52.422;10.782;2024-02-14T03:52:30;6.10;99.90
39847;DHT22;25517;52.422;10.782;2024-02-14T03:54:57;6.10;99.90
39847;DHT22;25517;52.422;10.782;2024-02-14T03:57:23;6.00;99.90
39847;DHT22;25517;52.422;10.782;2024-02-14T03:59:50;6.00;99.90
39847;DHT22;25517;52.422;10.782;2024-02-14T04:02:17;6.00;99.90
39847;DHT22;25517;52.422;10.782;2024-02-14T04:04:44;6.00;99.90
39847;DHT22;25517;52.422;10.782;2024-02-14T04:07:12;6.00;99.90
39847;DHT22;25517;52.422;10.782;2024-02-14T04:09:37;6.00;99.90
39847;DHT22;25517;52.422;10.782;2024-02-14T04:12:03;6.10;99.90
39847;DHT22;25517;52.422;10.782;2024-02-14T04:14:29;6.10;99.90
39847;DHT22;25517;52.422;10.782;2024-02-14T04:16:55;6.10;99.90
39847;DHT22;25517;52.422;10.782;2024-02-14T04:19:20;6.10;99.90
39847;DHT22;25517;52.422;10.782;2024-02-14T04:21:46;6.10;99.90
39847;DHT22;25517;52.422;10.782;2024-02-14T04:24:12;6.10;99.90
39847;DHT22;25517;52.422;10.782;2024-02-14T04:26:38;6.00;99.90
39847;DHT22;25517;52.422;10.782;2024-02-14T04:29:03;6.00;99.90
39847;DHT22;25517;52.422;10.782;2024-02-14T04:31:29;6.10;99.90
39847;DHT22;25517;52.422;10.782;2024-02-14T04:33:58;6.10;99.90
39847;DHT22;25517;52.422;10.782;2024-02-14T04:36:24;6.10;99.90
39847;DHT22;25517;52.422;10.782;2024-02-14T04:38:50;6.00;99.90
39847;DHT22;25517;52.422;10.782;2024-02-14T04:41:16;6.10;99.90
39847;DHT22;25517;52.422;10.782;2024-02-14T04:43:41;6.10;99.90
39847;DHT22;25517;52.422;10.782;2024-02-14T04:46:07;6.10;99.90
39847;DHT22;25517;52.422;10.782;2024-02-14T04:48:34;6.10;99.90
39847;DHT22;25517;52.422;10.782;2024-02-14T04:51:00;6.10;99.90
39847;DHT22;25517;52.422;10.782;2024-02-14T04:53:27;6.00;99.90
39847;DHT22;25517;52.422;10.782;2024-02-14T04:55:53;6.00;99.90
39847;DHT22;25517;52.422;10.782;2024-02-14T04:58:19;6.00;99.90
39847;DHT22;25517;52.422;10.782;2024-02-14T05:00:45;6.00;99.90
39847;DHT22;25517;52.422;10.782;2024-02-14T05:03:10;6.00;99.90
39847;DHT22;25517;52.422;10.782;2024-02-14T05:05:36;6.10;99.90
39847;DHT22;25517;52.422;10.782;2024-02-14T05:08:03;6.10;99.90
39847;DHT22;25517;52.422;10.782;2024-02-14T05:10:29;6.10;99.90
39847;DHT22;25517;52.422;10.782;2024-02-14T05:12:54;6.10;99.90
39847;DHT22;25517;52.422;10.782;2024-02-14T05:15:20;6.10;99.90
39847;DHT22;25517;52.422;10.782;2024-02-14T05:17:46;6.10;99.90
39847;DHT22;25517;52.422;10.782;2024-02-14T05:20:12;6.20;99.90
39847;DHT22;25517;52.422;10.782;2024-02-14T05:22:38;6.20;99.90
39847;DHT22;25517;52.422;10.782;2024-02-14T05:25:04;6.20;99.90
39847;DHT22;25517;52.422;10.782;2024-02-14T05:27:30;6.10;99.90
39847;DHT22;25517;52.422;10.782;2024-02-14T05:29:56;6.20;99.90
39847;DHT22;25517;52.422;10.782;2024-02-14T05:32:22;6.20;99.90
39847;DHT22;25517;52.422;10.782;2024-02-14T05:34:49;6.10;99.90
39847;DHT22;25517;52.422;10.782;2024-02-14T05:37:14;6.20;99.90
39847;DHT22;25517;52.422;10.782;2024-02-14T05:39:40;6.20;99.90
39847;DHT22;25517;52.422;10.782;2024-02-14T05:42:05;6.10;99.90
39847;DHT22;25517;52.422;10.782;2024-02-14T05:44:31;6.10;99.90
39847;DHT22;25517;52.422;10.782;2024-02-14T05:46:57;6.10;99.90
39847;DHT22;25517;52.422;10.782;2024-02-14T05:49:22;6.10;99.90
39847;DHT22;25517;52.422;10.782;2024-02-14T05:51:49;6.10;99.90
39847;DHT22;25517;52.422;10.782;2024-02-14T05:54:16;6.10;99.90
39847;DHT22;25517;52.422;10.782;2024-02-14T05:56:41;6.10;99.90
39847;DHT22;25517;52.422;10.782;2024-02-14T05:59:07;6.10;99.90
39847;DHT22;25517;52.422;10.782;2024-02-14T06:01:33;6.10;99.90
39847;DHT22;25517;52.422;10.782;2024-02-14T06:03:59;6.10;99.90
39847;DHT22;25517;52.422;10.782;2024-02-14T06:06:24;6.10;99.90
39847;DHT22;25517;52.422;10.782;2024-02-14T06:08:50;6.00;99.90
39847;DHT22;25517;52.422;10.782;2024-02-14T06:11:15;6.00;99.90
39847;DHT22;25517;52.422;10.782;2024-02-14T06:13:41;6.00;99.90
39847;DHT22;25517;52.422;10.782;2024-02-14T06:16:07;6.00;99.90
39847;DHT22;25517;52.422;10.782;2024-02-14T06:18:34;6.00;99.90
39847;DHT22;25517;52.422;10.782;2024-02-14T06:21:00;6.00;99.90
39847;DHT22;25517;52.422;10.782;2024-02-14T06:23:26;6.00;99.90
39847;DHT22;25517;52.422;10.782;2024-02-14T06:25:51;6.00;99.90
39847;DHT22;25517;52.422;10.782;2024-02-14T06:28:18;6.00;99.90
39847;DHT22;25517;52.422;10.782;2024-02-14T06:30:44;6.00;99.90
39847;DHT22;25517;52.422;10.782;2024-02-14T06:33:09;6.00;99.90
39847;DHT22;25517;52.422;10.782;2024-02-14T06:35:35;6.10;99.90
39847;DHT22;25517;52.422;10.782;2024-02-14T06:38:00;6.10;99.90
39847;DHT22;25517;52.422;10.782;2024-02-14T06:40:26;6.10;99.90
39847;DHT22;25517;52.422;10.782;2024-02-14T06:42:53;6.10;99.90
39847;DHT22;25517;52.422;10.782;2024-02-14T06:45:20;6.10;99.90
39847;DHT22;25517;52.422;10.782;2024-02-14T06:47:45;6.10;99.90
39847;DHT22;25517;52.422;10.782;2024-02-14T06:50:11;6.10;99.90
39847;DHT22;25517;52.422;10.782;2024-02-14T06:52:36;6.10;99.90
39847;DHT22;25517;52.422;10.782;2024-02-14T06:55:02;6.20;99.90
39847;DHT22;25517;52.422;10.782;2024-02-14T06:57:29;6.20;99.90
39847;DHT22;25517;52.422;10.782;2024-02-14T06:59:54;6.20;99.90
39847;DHT22;25517;52.422;10.782;2024-02-14T07:02:20;6.20;99.90
39847;DHT22;25517;52.422;10.782;2024-02-14T07:04:46;6.20;99.90
39847;DHT22;25517;52.422;10.782;2024-02-14T07:07:12;6.20;99.90
39847;DHT22;25517;52.422;10.782;2024-02-14T07:09:37;6.20;99.90
39847;DHT22;25517;52.422;10.782;2024-02-14T07:12:04;6.20;99.90
39847;DHT22;25517;52.422;10.782;2024-02-14T07:14:31;6.30;99.90
39847;DHT22;25517;52.422;10.782;2024-02-14T07:16:56;6.20;99.90
39847;DHT22;25517;52.422;10.782;2024-02-14T07:19:22;6.20;99.90
39847;DHT22;25517;52.422;10.782;2024-02-14T07:21:47;6.20;99.90
39847;DHT22;25517;52.422;10.782;2024-02-14T07:24:13;6.20;99.90
39847;DHT22;25517;52.422;10.782;2024-02-14T07:26:38;6.30;99.90
39847;DHT22;25517;52.422;10.782;2024-02-14T07:29:06;6.30;99.90
39847;DHT22;25517;52.422;10.782;2024-02-14T07:31:34;6.30;99.90
39847;DHT22;25517;52.422;10.782;2024-02-14T07:34:00;6.30;99.90
39847;DHT22;25517;52.422;10.782;2024-02-14T07:36:28;6.30;99.90
39847;DHT22;25517;52.422;10.782;2024-02-14T07:38:54;6.30;99.90
39847;DHT22;25517;52.422;10.782;2024-02-14T07:41:19;6.30;99.90
39847;DHT22;25517;52.422;10.782;2024-02-14T07:43:45;6.30;99.90
39847;DHT22;25517;52.422;10.782;2024-02-14T07:46:11;6.30;99.90
39847;DHT22;25517;52.422;10.782;2024-02-14T07:48:37;6.40;99.90
39847;DHT22;25517;52.422;10.782;2024-02-14T07:51:07;6.40;99.90
39847;DHT22;25517;52.422;10.782;2024-02-14T07:53:33;6.40;99.90
39847;DHT22;25517;52.422;10.782;2024-02-14T07:55:58;6.40;99.90
39847;DHT22;25517;52.422;10.782;2024-02-14T07:58:24;6.40;99.90
39847;DHT22;25517;52.422;10.782;2024-02-14T08:00:49;6.50;99.90
39847;DHT22;25517;52.422;10.782;2024-02-14T08:03:15;6.50;99.90
39847;DHT22;25517;52.422;10.782;2024-02-14T08:05:40;6.60;99.90
39847;DHT22;25517;52.422;10.782;2024-02-14T08:08:08;6.60;99.90
39847;DHT22;25517;52.422;10.782;2024-02-14T08:10:33;6.60;99.90
39847;DHT22;25517;52.422;10.782;2024-02-14T08:13:00;6.70;99.90
39847;DHT22;25517;52.422;10.782;2024-02-14T08:15:26;6.70;99.90
39847;DHT22;25517;52.422;10.782;2024-02-14T08:17:51;6.70;99.90
39847;DHT22;25517;52.422;10.782;2024-02-14T08:20:21;6.80;99.90
39847;DHT22;25517;52.422;10.782;2024-02-14T08:22:46;6.80;99.90
39847;DHT22;25517;52.422;10.782;2024-02-14T08:25:12;6.80;99.90
39847;DHT22;25517;52.422;10.782;2024-02-14T08:27:37;6.80;99.90
39847;DHT22;25517;52.422;10.782;2024-02-14T08:30:03;6.90;99.90
39847;DHT22;25517;52.422;10.782;2024-02-14T08:32:32;6.90;99.90
39847;DHT22;25517;52.422;10.782;2024-02-14T08:34:58;7.00;99.90
39847;DHT22;25517;52.422;10.782;2024-02-14T08:37:23;7.10;99.90
39847;DHT22;25517;52.422;10.782;2024-02-14T08:39:50;7.10;99.90
39847;DHT22;25517;52.422;10.782;2024-02-14T08:42:15;7.10;99.90
39847;DHT22;25517;52.422;10.782;2024-02-14T08:44:41;7.20;99.90
39847;DHT22;25517;52.422;10.782;2024-02-14T08:47:07;7.10;99.90
39847;DHT22;25517;52.422;10.782;2024-02-14T08:49:32;7.20;99.90
39847;DHT22;25517;52.422;10.782;2024-02-14T08:51:59;7.20;99.90
39847;DHT22;25517;52.422;10.782;2024-02-14T08:54:24;7.30;99.90
39847;DHT22;25517;52.422;10.782;2024-02-14T08:56:50;7.20;99.90
39847;DHT22;25517;52.422;10.782;2024-02-14T08:59:18;7.30;99.90
39847;DHT22;25517;52.422;10.782;2024-02-14T09:01:45;7.20;99.90
39847;DHT22;25517;52.422;10.782;2024-02-14T09:04:11;7.20;99.90
39847;DHT22;25517;52.422;10.782;2024-02-14T09:06:36;7.20;99.90
39847;DHT22;25517;52.422;10.782;2024-02-14T09:09:04;7.20;99.90
39847;DHT22;25517;52.422;10.782;2024-02-14T09:11:29;7.20;99.90
39847;DHT22;25517;52.422;10.782;2024-02-14T09:13:57;7.30;99.90
39847;DHT22;25517;52.422;10.782;2024-02-14T09:16:27;7.30;99.90
39847;DHT22;25517;52.422;10.782;2024-02-14T09:18:53;7.30;99.90
39847;DHT22;25517;52.422;10.782;2024-02-14T09:21:18;7.40;99.90
39847;DHT22;25517;52.422;10.782;2024-02-14T09:23:47;7.50;99.90
39847;DHT22;25517;52.422;10.782;2024-02-14T09:26:12;7.50;99.90
39847;DHT22;25517;52.422;10.782;2024-02-14T09:28:40;7.60;99.90
39847;DHT22;25517;52.422;10.782;2024-02-14T09:31:06;7.70;99.90
39847;DHT22;25517;52.422;10.782;2024-02-14T09:33:31;7.70;99.90
39847;DHT22;25517;52.422;10.782;2024-02-14T09:35:57;7.80;99.90
39847;DHT22;25517;52.422;10.782;2024-02-14T09:38:22;7.80;99.90
39847;DHT22;25517;52.422;10.782;2024-02-14T09:40:50;7.80;99.90
39847;DHT22;25517;52.422;10.782;2024-02-14T09:43:31;7.80;99.90
39847;DHT22;25517;52.422;10.782;2024-02-14T09:45:59;7.80;99.90
39847;DHT22;25517;52.422;10.782;2024-02-14T09:48:25;7.80;99.90
39847;DHT22;25517;52.422;10.782;2024-02-14T09:50:52;7.90;99.90
39847;DHT22;25517;52.422;10.782;2024-02-14T09:53:19;7.90;99.90
39847;DHT22;25517;52.422;10.782;2024-02-14T09:55:46;7.90;99.90
39847;DHT22;25517;52.422;10.782;2024-02-14T09:58:12;8.00;99.90
39847;DHT22;25517;52.422;10.782;2024-02-14T10:00:38;8.00;99.90
39847;DHT22;25517;52.422;10.782;2024-02-14T10:03:04;8.00;99.90
39847;DHT22;25517;52.422;10.782;2024-02-14T10:05:29;8.10;99.90
39847;DHT22;25517;52.422;10.782;2024-02-14T10:07:56;8.20;99.90
39847;DHT22;25517;52.422;10.782;2024-02-14T10:10:23;8.30;99.90
39847;DHT22;25517;52.422;10.782;2024-02-14T10:12:48;8.30;99.90
39847;DHT22;25517;52.422;10.782;2024-02-14T10:15:14;8.30;99.90
39847;DHT22;25517;52.422;10.782;2024-02-14T10:17:40;8.30;99.90
39847;DHT22;25517;52.422;10.782;2024-02-14T10:20:09;8.40;99.90
39847;DHT22;25517;52.422;10.782;2024-02-14T10:22:35;8.50;99.90
39847;DHT22;25517;52.422;10.782;2024-02-14T10:25:02;8.50;99.90
39847;DHT22;25517;52.422;10.782;2024-02-14T10:27:32;8.50;99.90
39847;DHT22;25517;52.422;10.782;2024-02-14T10:29:59;8.50;99.90
39847;DHT22;25517;52.422;10.782;2024-02-14T10:32:24;8.50;99.90
39847;DHT22;25517;52.422;10.782;2024-02-14T10:34:50;8.50;99.90
39847;DHT22;25517;52.422;10.782;2024-02-14T10:37:17;8.50;99.90
39847;DHT22;25517;52.422;10.782;2024-02-14T10:39:45;8.60;99.90
39847;DHT22;25517;52.422;10.782;2024-02-14T10:42:12;8.60;99.90
39847;DHT22;25517;52.422;10.782;2024-02-14T10:44:38;8.60;99.90
39847;DHT22;25517;52.422;10.782;2024-02-14T10:47:06;8.60;99.90
39847;DHT22;25517;52.422;10.782;2024-02-14T10:49:36;8.60;99.90
39847;DHT22;25517;52.422;10.782;2024-02-14T10:52:05;8.60;99.90
39847;DHT22;25517;52.422;10.782;2024-02-14T10:54:35;8.50;99.90
39847;DHT22;25517;52.422;10.782;2024-02-14T10:57:05;8.60;99.90
39847;DHT22;25517;52.422;10.782;2024-02-14T10:59:41;8.60;99.90
39847;DHT22;25517;52.422;10.782;2024-02-14T11:02:07;8.60;99.90
39847;DHT22;25517;52.422;10.782;2024-02-14T11:04:33;8.60;99.90
39847;DHT22;25517;52.422;10.782;2024-02-14T11:06:59;8.60;99.90
39847;DHT22;25517;52.422;10.782;2024-02-14T11:09:36;8.60;99.90
39847;DHT22;25517;52.422;10.782;2024-02-14T11:12:02;8.60;99.90
39847;DHT22;25517;52.422;10.782;2024-02-14T11:14:34;8.60;99.90
39847;DHT22;25517;52.422;10.782;2024-02-14T11:17:01;8.60;99.90
39847;DHT22;25517;52.422;10.782;2024-02-14T11:19:33;8.60;99.90
39847;DHT22;25517;52.422;10.782;2024-02-14T11:22:13;8.70;99.90
39847;DHT22;25517;52.422;10.782;2024-02-14T11:24:39;8.80;99.90
39847;DHT22;25517;52.422;10.782;2024-02-14T11:27:10;8.90;99.90
39847;DHT22;25517;52.422;10.782;2024-02-14T11:29:39;8.90;99.90
39847;DHT22;25517;52.422;10.782;2024-02-14T11:32:06;8.90;99.90
39847;DHT22;25517;52.422;10.782;2024-02-14T11:34:34;9.20;99.90
39847;DHT22;25517;52.422;10.782;2024-02-14T11:37:00;9.40;99.90
39847;DHT22;25517;52.422;10.782;2024-02-14T11:39:26;9.50;99.90
39847;DHT22;25517;52.422;10.782;2024-02-14T11:41:51;9.50;99.90
39847;DHT22;25517;52.422;10.782;2024-02-14T11:44:19;9.70;99.90
39847;DHT22;25517;52.422;10.782;2024-02-14T11:46:47;9.90;99.90
39847;DHT22;25517;52.422;10.782;2024-02-14T11:49:13;9.90;99.90
39847;DHT22;25517;52.422;10.782;2024-02-14T11:51:38;9.90;99.90
39847;DHT22;25517;52.422;10.782;2024-02-14T11:54:06;9.80;99.90
39847;DHT22;25517;52.422;10.782;2024-02-14T11:56:38;9.70;99.90
39847;DHT22;25517;52.422;10.782;2024-02-14T11:59:06;9.70;99.90
39847;DHT22;25517;52.422;10.782;2024-02-14T12:01:36;9.60;99.90
39847;DHT22;25517;52.422;10.782;2024-02-14T12:04:04;9.60;99.90
39847;DHT22;25517;52.422;10.782;2024-02-14T12:06:34;9.70;99.90
39847;DHT22;25517;52.422;10.782;2024-02-14T12:09:03;9.60;99.90
39847;DHT22;25517;52.422;10.782;2024-02-14T12:11:38;9.60;99.90
39847;DHT22;25517;52.422;10.782;2024-02-14T12:14:08;9.70;99.90
39847;DHT22;25517;52.422;10.782;2024-02-14T12:16:35;9.60;99.90
39847;DHT22;25517;52.422;10.782;2024-02-14T12:19:08;9.60;99.90
39847;DHT22;25517;52.422;10.782;2024-02-14T12:21:38;9.70;99.90
39847;DHT22;25517;52.422;10.782;2024-02-14T12:24:08;9.70;99.90
39847;DHT22;25517;52.422;10.782;2024-02-14T12:26:38;9.70;99.90
39847;DHT22;25517;52.422;10.782;2024-02-14T12:29:04;9.90;99.90
39847;DHT22;25517;52.422;10.782;2024-02-14T12:31:30;9.90;99.90
39847;DHT22;25517;52.422;10.782;2024-02-14T12:33:57;9.90;99.90
39847;DHT22;25517;52.422;10.782;2024-02-14T12:36:25;9.90;99.90
39847;DHT22;25517;52.422;10.782;2024-02-14T12:38:50;9.80;99.90
39847;DHT22;25517;52.422;10.782;2024-02-14T12:41:18;9.90;99.90
39847;DHT22;25517;52.422;10.782;2024-02-14T12:43:44;10.00;99.90
39847;DHT22;25517;52.422;10.782;2024-02-14T12:46:09;10.10;99.90
39847;DHT22;25517;52.422;10.782;2024-02-14T12:48:35;10.10;99.90
39847;DHT22;25517;52.422;10.782;2024-02-14T12:51:01;10.20;99.90
39847;DHT22;25517;52.422;10.782;2024-02-14T12:53:26;10.20;99.90
39847;DHT22;25517;52.422;10.782;2024-02-14T12:55:52;10.20;99.90
39847;DHT22;25517;52.422;10.782;2024-02-14T12:58:18;10.10;99.90
39847;DHT22;25517;52.422;10.782;2024-02-14T13:00:44;10.20;99.90
39847;DHT22;25517;52.422;10.782;2024-02-14T13:03:10;10.40;99.90
39847;DHT22;25517;52.422;10.782;2024-02-14T13:05:36;10.40;99.90
39847;DHT22;25517;52.422;10.782;2024-02-14T13:08:02;10.40;99.90
39847;DHT22;25517;52.422;10.782;2024-02-14T13:10:28;10.30;99.90
39847;DHT22;25517;52.422;10.782;2024-02-14T13:12:56;10.30;99.90
39847;DHT22;25517;52.422;10.782;2024-02-14T13:15:22;10.30;99.90
39847;DHT22;25517;52.422;10.782;2024-02-14T13:17:47;10.30;99.90
39847;DHT22;25517;52.422;10.782;2024-02-14T13:20:14;10.20;99.90
39847;DHT22;25517;52.422;10.782;2024-02-14T13:22:40;10.30;99.90
39847;DHT22;25517;52.422;10.782;2024-02-14T13:25:06;10.20;99.90
39847;DHT22;25517;52.422;10.782;2024-02-14T13:27:32;10.30;99.90
39847;DHT22;25517;52.422;10.782;2024-02-14T13:29:58;10.30;99.90
39847;DHT22;25517;52.422;10.782;2024-02-14T13:32:24;10.30;99.90
39847;DHT22;25517;52.422;10.782;2024-02-14T13:34:50;10.40;99.90
39847;DHT22;25517;52.422;10.782;2024-02-14T13:37:15;10.50;99.90
39847;DHT22;25517;52.422;10.782;2024-02-14T13:39:41;10.70;99.90
39847;DHT22;25517;52.422;10.782;2024-02-14T13:42:06;10.70;99.90
39847;DHT22;25517;52.422;10.782;2024-02-14T13:44:33;10.80;99.90
39847;DHT22;25517;52.422;10.782;2024-02-14T13:46:59;10.80;99.90
39847;DHT22;25517;52.422;10.782;2024-02-14T13:49:24;10.80;99.90
39847;DHT22;25517;52.422;10.782;2024-02-14T13:51:51;10.90;99.90
39847;DHT22;25517;52.422;10.782;2024-02-14T13:54:20;10.90;99.90
39847;DHT22;25517;52.422;10.782;2024-02-14T13:56:47;11.00;99.90
39847;DHT22;25517;52.422;10.782;2024-02-14T13:59:14;11.00;99.90
39847;DHT22;25517;52.422;10.782;2024-02-14T14:01:40;11.00;99.90
39847;DHT22;25517;52.422;10.782;2024-02-14T14:04:06;11.00;99.90
39847;DHT22;25517;52.422;10.782;2024-02-14T14:06:31;11.10;99.90
39847;DHT22;25517;52.422;10.782;2024-02-14T14:08:57;11.20;99.90
39847;DHT22;25517;52.422;10.782;2024-02-14T14:11:23;11.30;99.90
39847;DHT22;25517;52.422;10.782;2024-02-14T14:13:48;11.30;99.90
39847;DHT22;25517;52.422;10.782;2024-02-14T14:16:14;11.20;99.90
39847;DHT22;25517;52.422;10.782;2024-02-14T14:18:40;11.20;99.90
39847;DHT22;25517;52.422;10.782;2024-02-14T14:21:06;11.20;99.90
39847;DHT22;25517;52.422;10.782;2024-02-14T14:23:32;11.20;99.90
39847;DHT22;25517;52.422;10.782;2024-02-14T14:25:58;11.20;99.90
39847;DHT22;25517;52.422;10.782;2024-02-14T14:28:24;11.20;99.90
39847;DHT22;25517;52.422;10.782;2024-02-14T14:30:53;11.20;99.90
39847;DHT22;25517;52.422;10.782;2024-02-14T14:33:20;11.10;99.90
39847;DHT22;25517;52.422;10.782;2024-02-14T14:35:46;11.10;99.90
39847;DHT22;25517;52.422;10.782;2024-02-14T14:38:11;11.10;99.90
39847;DHT22;25517;52.422;10.782;2024-02-14T14:40:37;11.10;99.90
39847;DHT22;25517;52.422;10.782;2024-02-14T14:43:03;11.10;99.90
39847;DHT22;25517;52.422;10.782;2024-02-14T14:45:29;11.00;99.90
39847;DHT22;25517;52.422;10.782;2024-02-14T14:47:56;11.00;99.90
39847;DHT22;25517;52.422;10.782;2024-02-14T14:50:21;11.00;99.90
39847;DHT22;25517;52.422;10.782;2024-02-14T14:52:47;11.00;99.90
39847;DHT22;25517;52.422;10.782;2024-02-14T14:55:13;11.00;99.90
39847;DHT22;25517;52.422;10.782;2024-02-14T14:57:38;11.00;99.90
39847;DHT22;25517;52.422;10.782;2024-02-14T15:00:10;11.00;99.90
39847;DHT22;25517;52.422;10.782;2024-02-14T15:02:43;10.90;99.90
39847;DHT22;25517;52.422;10.782;2024-02-14T15:05:12;10.80;99.90
39847;DHT22;25517;52.422;10.782;2024-02-14T15:07:41;10.90;99.90
39847;DHT22;25517;52.422;10.782;2024-02-14T15:10:07;10.90;99.90
39847;DHT22;25517;52.422;10.782;2024-02-14T15:12:36;10.90;99.90
39847;DHT22;25517;52.422;10.782;2024-02-14T15:15:05;10.80;99.90
39847;DHT22;25517;52.422;10.782;2024-02-14T15:17:31;10.80;99.90
39847;DHT22;25517;52.422;10.782;2024-02-14T15:19:57;10.80;99.90
39847;DHT22;25517;52.422;10.782;2024-02-14T15:22:23;10.80;99.90